createdAt,value
2018-03-11T00:00:24.854Z,15.05
2018-03-11T00:02:56.791Z,13.80
2018-03-11T00:05:28.483Z,13.88
2018-03-11T00:07:59.701Z,13.65
2018-03-11T00:10:30.843Z,14.73
2018-03-11T00:13:02.367Z,14.85
2018-03-11T00:15:33.464Z,16.02
2018-03-11T00:18:04.939Z,14.65
2018-03-11T00:20:35.992Z,13.50
2018-03-11T00:23:06.737Z,13.60
2018-03-11T00:25:37.935Z,13.25
2018-03-11T00:28:10.836Z,14.38
2018-03-11T00:30:41.915Z,13.43
2018-03-11T00:33:12.676Z,15.20
2018-03-11T00:35:43.549Z,13.23
2018-03-11T00:38:15.358Z,13.80
2018-03-11T00:40:47.377Z,13.77
2018-03-11T00:43:19.657Z,13.62
2018-03-11T00:45:52.510Z,12.73
2018-03-11T00:48:23.687Z,12.85
2018-03-11T00:50:55.030Z,12.98
2018-03-11T00:53:26.773Z,13.23
2018-03-11T00:55:58.608Z,13.25
2018-03-11T00:58:30.337Z,13.52
2018-03-11T01:01:02.009Z,13.62
2018-03-11T01:03:34.758Z,15.40
2018-03-11T01:06:06.049Z,13.90
2018-03-11T01:08:37.138Z,15.30
2018-03-11T01:11:09.358Z,17.62
2018-03-11T01:13:40.166Z,15.55
2018-03-11T01:16:11.335Z,15.63
2018-03-11T01:18:43.576Z,16.48
2018-03-11T01:21:14.231Z,17.25
2018-03-11T01:23:46.445Z,15.40
2018-03-11T01:26:18.525Z,15.85
2018-03-11T01:28:54.461Z,16.62
2018-03-11T01:31:25.003Z,15.10
2018-03-11T01:33:56.043Z,16.02
2018-03-11T01:36:26.790Z,16.00
2018-03-11T01:39:02.548Z,16.35
2018-03-11T01:41:33.741Z,16.17
2018-03-11T01:44:04.483Z,16.95
2018-03-11T01:46:36.311Z,17.35
2018-03-11T01:49:07.234Z,19.75
2018-03-11T01:51:38.846Z,19.12
2018-03-11T01:54:09.621Z,21.70
2018-03-11T01:56:40.512Z,18.23
2018-03-11T02:02:12.276Z,22.73
2018-03-11T02:04:43.094Z,23.00
2018-03-11T02:07:13.259Z,21.00
2018-03-11T02:09:44.091Z,20.67
2018-03-11T02:12:15.020Z,20.20
2018-03-11T02:14:45.840Z,20.83
2018-03-11T02:17:16.679Z,19.80
2018-03-11T02:19:47.814Z,21.12
2018-03-11T02:22:19.064Z,20.55
2018-03-11T02:24:51.321Z,20.10
2018-03-11T02:27:23.316Z,22.08
2018-03-11T02:29:54.483Z,19.20
2018-03-11T02:32:25.342Z,20.12
2018-03-11T02:34:55.848Z,21.98
2018-03-11T02:37:25.856Z,22.90
2018-03-11T02:39:55.888Z,24.70
2018-03-11T02:42:26.798Z,26.17
2018-03-11T02:44:57.573Z,23.80
2018-03-11T02:47:27.906Z,26.30
2018-03-11T02:49:58.744Z,29.17
2018-03-11T02:52:28.961Z,26.17
2018-03-11T02:55:00.286Z,27.75
2018-03-11T02:57:30.161Z,27.00
2018-03-11T03:00:00.410Z,28.17
2018-03-11T03:02:30.830Z,30.80
2018-03-11T03:05:01.378Z,25.73
2018-03-11T03:07:32.067Z,29.48
2018-03-11T03:10:02.811Z,27.90
2018-03-11T03:12:32.479Z,25.55
2018-03-11T03:15:02.486Z,29.92
2018-03-11T03:17:32.563Z,29.30
2018-03-11T03:20:06.762Z,28.05
2018-03-11T03:22:36.633Z,28.40
2018-03-11T03:25:06.647Z,32.70
2018-03-11T03:27:36.953Z,33.22
2018-03-11T03:30:12.035Z,30.65
2018-03-11T03:32:42.751Z,31.85
2018-03-11T03:35:13.339Z,27.70
2018-03-11T03:37:43.990Z,29.83
2018-03-11T03:43:06.607Z,27.85
2018-03-11T03:45:36.627Z,28.05
2018-03-11T03:48:06.547Z,28.42
2018-03-11T03:50:36.356Z,29.77
2018-03-11T03:53:07.110Z,30.33
2018-03-11T03:55:36.700Z,28.08
2018-03-11T03:58:07.118Z,27.50
2018-03-11T04:00:37.832Z,26.35
2018-03-11T04:03:07.706Z,30.65
2018-03-11T04:05:38.625Z,29.33
2018-03-11T04:08:09.046Z,32.20
2018-03-11T04:10:40.262Z,32.17
2018-03-11T04:13:10.121Z,32.67
2018-03-11T04:15:40.523Z,34.15
2018-03-11T04:18:11.146Z,33.35
2018-03-11T04:20:41.209Z,36.40
2018-03-11T04:23:10.614Z,32.20
2018-03-11T04:25:40.741Z,37.72
2018-03-11T04:28:12.911Z,32.28
2018-03-11T04:30:42.702Z,31.80
2018-03-11T04:33:12.360Z,29.63
2018-03-11T04:35:42.270Z,29.15
2018-03-11T04:38:12.326Z,27.48
2018-03-11T04:40:43.323Z,30.30
2018-03-11T04:43:13.965Z,29.65
2018-03-11T04:45:43.598Z,30.12
2018-03-11T04:48:13.836Z,30.95
2018-03-11T04:50:43.344Z,27.98
2018-03-11T04:53:13.025Z,29.42
2018-03-11T04:55:43.568Z,30.10
2018-03-11T04:58:14.070Z,28.92
2018-03-11T05:00:44.016Z,33.17
2018-03-11T05:03:13.786Z,33.70
2018-03-11T05:05:43.479Z,36.78
2018-03-11T05:08:12.850Z,38.85
2018-03-11T05:10:42.414Z,36.70
2018-03-11T05:13:11.932Z,35.88
2018-03-11T05:15:41.362Z,38.95
2018-03-11T05:18:11.227Z,36.17
2018-03-11T05:20:40.607Z,38.00
2018-03-11T05:23:10.562Z,35.53
2018-03-11T05:25:41.072Z,35.88
2018-03-11T05:28:13.249Z,33.17
2018-03-11T05:30:44.647Z,25.52
2018-03-11T05:33:24.085Z,24.75
2018-03-11T05:35:53.976Z,26.65
2018-03-11T05:38:23.720Z,25.92
2018-03-11T05:40:53.380Z,24.30
2018-03-11T05:43:22.930Z,23.17
2018-03-11T05:45:52.494Z,42.15
2018-03-11T05:48:22.551Z,52.38
2018-03-11T05:50:52.550Z,51.22
2018-03-11T05:53:22.200Z,47.80
2018-03-11T05:55:52.310Z,55.88
2018-03-11T05:58:22.185Z,55.35
2018-03-11T06:00:52.773Z,54.08
2018-03-11T06:03:22.700Z,56.63
2018-03-11T06:05:52.669Z,55.28
2018-03-11T06:08:22.649Z,55.50
2018-03-11T06:10:53.642Z,51.45
2018-03-11T06:13:23.730Z,48.53
2018-03-11T06:15:53.706Z,43.92
2018-03-11T06:18:24.724Z,38.88
2018-03-11T06:20:54.260Z,36.17
2018-03-11T06:23:24.707Z,48.25
2018-03-11T06:25:55.194Z,46.47
2018-03-11T06:28:25.600Z,46.55
2018-03-11T06:30:55.597Z,41.75
2018-03-11T06:33:26.159Z,37.42
2018-03-11T06:35:57.337Z,35.85
2018-03-11T06:38:27.836Z,37.53
2018-03-11T06:40:58.673Z,38.92
2018-03-11T06:43:30.004Z,35.70
2018-03-11T06:46:00.495Z,36.97
2018-03-11T06:48:30.984Z,36.45
